sensor_id;sensor_type;location;lat;lon;timestamp;P1;durP1;ratioP1;P2;durP2;ratioP2
54613;SDS011;40514;52.758;6.360;2022-11-14T00:00:58;37.23;;;19.13;;
54613;SDS011;40514;52.758;6.360;2022-11-14T00:03:24;36.03;;;19.57;;
54613;SDS011;40514;52.758;6.360;2022-11-14T00:05:49;35.00;;;18.63;;
54613;SDS011;40514;52.758;6.360;2022-11-14T00:08:17;35.93;;;18.93;;
54613;SDS011;40514;52.758;6.360;2022-11-14T00:10:48;37.35;;;18.70;;
54613;SDS011;40514;52.758;6.360;2022-11-14T00:13:15;34.55;;;19.05;;
54613;SDS011;40514;52.758;6.360;2022-11-14T00:15:42;35.78;;;20.02;;
54613;SDS011;40514;52.758;6.360;2022-11-14T00:18:08;38.67;;;19.67;;
54613;SDS011;40514;52.758;6.360;2022-11-14T00:20:33;38.07;;;20.33;;
54613;SDS011;40514;52.758;6.360;2022-11-14T00:22:59;36.73;;;19.43;;
54613;SDS011;40514;52.758;6.360;2022-11-14T00:25:25;36.07;;;19.27;;
54613;SDS011;40514;52.758;6.360;2022-11-14T00:27:51;34.97;;;18.67;;
54613;SDS011;40514;52.758;6.360;2022-11-14T00:30:16;38.27;;;20.20;;
54613;SDS011;40514;52.758;6.360;2022-11-14T00:32:42;35.13;;;19.63;;
54613;SDS011;40514;52.758;6.360;2022-11-14T00:35:07;37.33;;;19.30;;
54613;SDS011;40514;52.758;6.360;2022-11-14T00:37:33;38.60;;;19.60;;
54613;SDS011;40514;52.758;6.360;2022-11-14T00:39:59;34.27;;;19.57;;
54613;SDS011;40514;52.758;6.360;2022-11-14T00:42:24;39.40;;;20.37;;
54613;SDS011;40514;52.758;6.360;2022-11-14T00:44:50;35.93;;;20.53;;
54613;SDS011;40514;52.758;6.360;2022-11-14T00:47:16;37.90;;;20.00;;
54613;SDS011;40514;52.758;6.360;2022-11-14T00:49:41;40.73;;;21.63;;
54613;SDS011;40514;52.758;6.360;2022-11-14T00:52:07;38.97;;;20.27;;
54613;SDS011;40514;52.758;6.360;2022-11-14T00:54:32;37.10;;;20.43;;
54613;SDS011;40514;52.758;6.360;2022-11-14T00:56:58;38.87;;;21.20;;
54613;SDS011;40514;52.758;6.360;2022-11-14T00:59:23;38.10;;;21.27;;
54613;SDS011;40514;52.758;6.360;2022-11-14T01:01:49;40.20;;;21.40;;
54613;SDS011;40514;52.758;6.360;2022-11-14T01:04:14;40.30;;;21.77;;
54613;SDS011;40514;52.758;6.360;2022-11-14T01:06:40;42.93;;;22.00;;
54613;SDS011;40514;52.758;6.360;2022-11-14T01:09:05;40.10;;;22.73;;
54613;SDS011;40514;52.758;6.360;2022-11-14T01:11:32;38.65;;;22.67;;
54613;SDS011;40514;52.758;6.360;2022-11-14T01:13:58;39.90;;;22.70;;
54613;SDS011;40514;52.758;6.360;2022-11-14T01:16:23;39.73;;;22.13;;
54613;SDS011;40514;52.758;6.360;2022-11-14T01:18:49;46.00;;;23.93;;
54613;SDS011;40514;52.758;6.360;2022-11-14T01:21:15;42.27;;;21.00;;
54613;SDS011;40514;52.758;6.360;2022-11-14T01:23:41;40.28;;;22.77;;
54613;SDS011;40514;52.758;6.360;2022-11-14T01:26:10;39.70;;;22.77;;
54613;SDS011;40514;52.758;6.360;2022-11-14T01:28:37;45.03;;;24.15;;
54613;SDS011;40514;52.758;6.360;2022-11-14T01:31:14;40.45;;;23.50;;
54613;SDS011;40514;52.758;6.360;2022-11-14T01:33:42;39.92;;;23.17;;
54613;SDS011;40514;52.758;6.360;2022-11-14T01:36:08;41.70;;;23.13;;
54613;SDS011;40514;52.758;6.360;2022-11-14T01:38:35;43.25;;;23.83;;
54613;SDS011;40514;52.758;6.360;2022-11-14T01:41:01;40.58;;;22.60;;
54613;SDS011;40514;52.758;6.360;2022-11-14T01:48:39;42.65;;;25.27;;
54613;SDS011;40514;52.758;6.360;2022-11-14T01:51:14;40.20;;;23.50;;
54613;SDS011;40514;52.758;6.360;2022-11-14T01:53:45;43.88;;;24.77;;
54613;SDS011;40514;52.758;6.360;2022-11-14T01:56:14;41.42;;;22.95;;
54613;SDS011;40514;52.758;6.360;2022-11-14T01:58:44;42.78;;;23.77;;
54613;SDS011;40514;52.758;6.360;2022-11-14T02:01:13;40.80;;;23.38;;
54613;SDS011;40514;52.758;6.360;2022-11-14T02:03:40;42.40;;;23.87;;
54613;SDS011;40514;52.758;6.360;2022-11-14T02:06:08;41.63;;;23.42;;
54613;SDS011;40514;52.758;6.360;2022-11-14T02:08:37;42.63;;;23.23;;
54613;SDS011;40514;52.758;6.360;2022-11-14T02:11:03;44.35;;;24.55;;
54613;SDS011;40514;52.758;6.360;2022-11-14T02:13:29;42.23;;;25.13;;
54613;SDS011;40514;52.758;6.360;2022-11-14T02:15:55;45.40;;;25.03;;
54613;SDS011;40514;52.758;6.360;2022-11-14T02:18:20;45.33;;;26.10;;
54613;SDS011;40514;52.758;6.360;2022-11-14T02:20:46;44.97;;;25.50;;
54613;SDS011;40514;52.758;6.360;2022-11-14T02:23:11;48.23;;;26.57;;
54613;SDS011;40514;52.758;6.360;2022-11-14T02:25:37;47.17;;;26.63;;
54613;SDS011;40514;52.758;6.360;2022-11-14T02:28:04;48.10;;;26.42;;
54613;SDS011;40514;52.758;6.360;2022-11-14T02:30:31;46.42;;;26.13;;
54613;SDS011;40514;52.758;6.360;2022-11-14T02:32:57;47.87;;;26.53;;
54613;SDS011;40514;52.758;6.360;2022-11-14T02:35:22;50.07;;;27.07;;
54613;SDS011;40514;52.758;6.360;2022-11-14T02:37:48;47.20;;;26.50;;
54613;SDS011;40514;52.758;6.360;2022-11-14T02:40:13;47.03;;;27.30;;
54613;SDS011;40514;52.758;6.360;2022-11-14T02:42:39;47.03;;;27.87;;
54613;SDS011;40514;52.758;6.360;2022-11-14T02:45:05;49.90;;;27.63;;
54613;SDS011;40514;52.758;6.360;2022-11-14T02:47:31;48.75;;;27.13;;
54613;SDS011;40514;52.758;6.360;2022-11-14T02:49:57;47.20;;;27.23;;
54613;SDS011;40514;52.758;6.360;2022-11-14T02:52:22;52.57;;;28.23;;
54613;SDS011;40514;52.758;6.360;2022-11-14T02:54:48;51.67;;;28.80;;
54613;SDS011;40514;52.758;6.360;2022-11-14T02:57:13;50.37;;;28.10;;
54613;SDS011;40514;52.758;6.360;2022-11-14T02:59:39;50.63;;;28.20;;
54613;SDS011;40514;52.758;6.360;2022-11-14T03:02:04;50.40;;;27.80;;
54613;SDS011;40514;52.758;6.360;2022-11-14T03:04:30;53.30;;;29.40;;
54613;SDS011;40514;52.758;6.360;2022-11-14T03:06:55;53.47;;;29.17;;
54613;SDS011;40514;52.758;6.360;2022-11-14T03:09:21;52.97;;;28.53;;
54613;SDS011;40514;52.758;6.360;2022-11-14T03:11:46;57.97;;;31.37;;
54613;SDS011;40514;52.758;6.360;2022-11-14T03:14:12;50.63;;;29.03;;
54613;SDS011;40514;52.758;6.360;2022-11-14T03:16:37;53.50;;;28.47;;
54613;SDS011;40514;52.758;6.360;2022-11-14T03:19:03;54.13;;;30.27;;
54613;SDS011;40514;52.758;6.360;2022-11-14T03:21:28;54.20;;;29.83;;
54613;SDS011;40514;52.758;6.360;2022-11-14T03:23:54;52.83;;;28.70;;
54613;SDS011;40514;52.758;6.360;2022-11-14T03:26:19;51.07;;;28.73;;
54613;SDS011;40514;52.758;6.360;2022-11-14T03:28:45;52.67;;;27.80;;
54613;SDS011;40514;52.758;6.360;2022-11-14T03:31:11;54.03;;;29.17;;
54613;SDS011;40514;52.758;6.360;2022-11-14T03:33:38;54.45;;;29.27;;
54613;SDS011;40514;52.758;6.360;2022-11-14T03:36:04;54.60;;;29.70;;
54613;SDS011;40514;52.758;6.360;2022-11-14T03:38:30;48.78;;;27.65;;
54613;SDS011;40514;52.758;6.360;2022-11-14T03:40:57;51.63;;;27.92;;
54613;SDS011;40514;52.758;6.360;2022-11-14T03:45:49;48.05;;;26.48;;
54613;SDS011;40514;52.758;6.360;2022-11-14T03:48:15;51.90;;;27.63;;
54613;SDS011;40514;52.758;6.360;2022-11-14T03:50:40;48.77;;;27.27;;
54613;SDS011;40514;52.758;6.360;2022-11-14T03:53:07;52.15;;;27.17;;
54613;SDS011;40514;52.758;6.360;2022-11-14T03:55:33;55.23;;;28.50;;
54613;SDS011;40514;52.758;6.360;2022-11-14T03:57:59;52.10;;;29.13;;
54613;SDS011;40514;52.758;6.360;2022-11-14T04:00:24;51.47;;;29.17;;
54613;SDS011;40514;52.758;6.360;2022-11-14T04:02:53;53.85;;;28.50;;
54613;SDS011;40514;52.758;6.360;2022-11-14T04:05:19;51.45;;;28.15;;
54613;SDS011;40514;52.758;6.360;2022-11-14T04:07:45;54.70;;;28.50;;
54613;SDS011;40514;52.758;6.360;2022-11-14T04:10:11;52.50;;;28.50;;
54613;SDS011;40514;52.758;6.360;2022-11-14T04:12:36;49.33;;;27.47;;
54613;SDS011;40514;52.758;6.360;2022-11-14T04:15:02;54.23;;;29.63;;
54613;SDS011;40514;52.758;6.360;2022-11-14T04:17:28;51.60;;;28.77;;
54613;SDS011;40514;52.758;6.360;2022-11-14T04:19:53;50.20;;;28.37;;
54613;SDS011;40514;52.758;6.360;2022-11-14T04:22:19;53.07;;;28.80;;
54613;SDS011;40514;52.758;6.360;2022-11-14T04:24:44;53.27;;;27.63;;
54613;SDS011;40514;52.758;6.360;2022-11-14T04:27:10;54.00;;;28.90;;
54613;SDS011;40514;52.758;6.360;2022-11-14T04:29:35;52.37;;;29.03;;
54613;SDS011;40514;52.758;6.360;2022-11-14T04:32:01;50.47;;;27.77;;
54613;SDS011;40514;52.758;6.360;2022-11-14T04:34:27;51.93;;;29.43;;
54613;SDS011;40514;52.758;6.360;2022-11-14T04:36:52;54.33;;;27.87;;
54613;SDS011;40514;52.758;6.360;2022-11-14T04:39:18;55.57;;;30.27;;
54613;SDS011;40514;52.758;6.360;2022-11-14T04:41:43;52.77;;;29.77;;
54613;SDS011;40514;52.758;6.360;2022-11-14T04:44:09;52.67;;;29.03;;
54613;SDS011;40514;52.758;6.360;2022-11-14T04:46:34;50.90;;;28.30;;
54613;SDS011;40514;52.758;6.360;2022-11-14T04:49:00;57.97;;;30.43;;
54613;SDS011;40514;52.758;6.360;2022-11-14T04:51:25;51.20;;;29.33;;
54613;SDS011;40514;52.758;6.360;2022-11-14T04:53:51;54.13;;;28.40;;
54613;SDS011;40514;52.758;6.360;2022-11-14T04:56:17;52.90;;;28.63;;
54613;SDS011;40514;52.758;6.360;2022-11-14T04:58:42;53.67;;;29.97;;
54613;SDS011;40514;52.758;6.360;2022-11-14T05:01:08;49.17;;;27.77;;
54613;SDS011;40514;52.758;6.360;2022-11-14T05:03:34;49.25;;;28.75;;
54613;SDS011;40514;52.758;6.360;2022-11-14T05:06:00;49.67;;;27.03;;
54613;SDS011;40514;52.758;6.360;2022-11-14T05:08:26;53.78;;;28.50;;
54613;SDS011;40514;52.758;6.360;2022-11-14T05:10:52;50.87;;;27.90;;
54613;SDS011;40514;52.758;6.360;2022-11-14T05:13:17;52.47;;;27.03;;
54613;SDS011;40514;52.758;6.360;2022-11-14T05:15:43;55.50;;;28.97;;
54613;SDS011;40514;52.758;6.360;2022-11-14T05:18:09;49.30;;;28.27;;
54613;SDS011;40514;52.758;6.360;2022-11-14T05:20:34;52.17;;;28.23;;
54613;SDS011;40514;52.758;6.360;2022-11-14T05:23:00;52.17;;;27.57;;
54613;SDS011;40514;52.758;6.360;2022-11-14T05:25:25;51.77;;;29.90;;
54613;SDS011;40514;52.758;6.360;2022-11-14T05:27:51;54.50;;;29.77;;
54613;SDS011;40514;52.758;6.360;2022-11-14T05:30:17;53.77;;;28.03;;
54613;SDS011;40514;52.758;6.360;2022-11-14T05:32:43;53.30;;;28.37;;
54613;SDS011;40514;52.758;6.360;2022-11-14T05:35:08;53.30;;;29.30;;
54613;SDS011;40514;52.758;6.360;2022-11-14T05:37:34;52.03;;;28.77;;
54613;SDS011;40514;52.758;6.360;2022-11-14T05:40:00;53.37;;;28.90;;
54613;SDS011;40514;52.758;6.360;2022-11-14T05:42:27;52.20;;;29.60;;
54613;SDS011;40514;52.758;6.360;2022-11-14T05:44:52;52.57;;;28.83;;
54613;SDS011;40514;52.758;6.360;2022-11-14T05:47:18;49.63;;;28.00;;
54613;SDS011;40514;52.758;6.360;2022-11-14T05:49:43;50.80;;;28.37;;
54613;SDS011;40514;52.758;6.360;2022-11-14T05:52:09;51.83;;;28.77;;
54613;SDS011;40514;52.758;6.360;2022-11-14T05:54:35;53.40;;;28.37;;
54613;SDS011;40514;52.758;6.360;2022-11-14T05:57:00;55.10;;;29.60;;
54613;SDS011;40514;52.758;6.360;2022-11-14T05:59:26;51.77;;;28.27;;
54613;SDS011;40514;52.758;6.360;2022-11-14T06:01:52;50.83;;;28.00;;
54613;SDS011;40514;52.758;6.360;2022-11-14T06:04:18;53.63;;;28.45;;
54613;SDS011;40514;52.758;6.360;2022-11-14T06:06:43;53.20;;;28.47;;
54613;SDS011;40514;52.758;6.360;2022-11-14T06:09:09;52.40;;;28.47;;
54613;SDS011;40514;52.758;6.360;2022-11-14T06:11:34;52.23;;;28.83;;
54613;SDS011;40514;52.758;6.360;2022-11-14T06:14:00;54.87;;;28.73;;
54613;SDS011;40514;52.758;6.360;2022-11-14T06:16:26;55.60;;;30.30;;
54613;SDS011;40514;52.758;6.360;2022-11-14T06:18:52;49.07;;;28.10;;
54613;SDS011;40514;52.758;6.360;2022-11-14T06:21:19;56.95;;;29.58;;
54613;SDS011;40514;52.758;6.360;2022-11-14T06:23:46;54.95;;;28.63;;
54613;SDS011;40514;52.758;6.360;2022-11-14T06:26:25;56.05;;;29.70;;
54613;SDS011;40514;52.758;6.360;2022-11-14T06:28:56;50.05;;;27.00;;
54613;SDS011;40514;52.758;6.360;2022-11-14T06:31:22;54.28;;;29.63;;
54613;SDS011;40514;52.758;6.360;2022-11-14T06:33:49;51.92;;;28.80;;
54613;SDS011;40514;52.758;6.360;2022-11-14T06:36:15;54.90;;;28.80;;
54613;SDS011;40514;52.758;6.360;2022-11-14T06:38:41;52.80;;;29.13;;
54613;SDS011;40514;52.758;6.360;2022-11-14T06:41:08;59.35;;;30.05;;
54613;SDS011;40514;52.758;6.360;2022-11-14T06:43:39;53.20;;;28.92;;
54613;SDS011;40514;52.758;6.360;2022-11-14T06:46:07;54.50;;;29.00;;
54613;SDS011;40514;52.758;6.360;2022-11-14T06:48:34;57.80;;;29.67;;
54613;SDS011;40514;52.758;6.360;2022-11-14T06:51:00;57.47;;;30.87;;
54613;SDS011;40514;52.758;6.360;2022-11-14T06:53:27;53.85;;;30.23;;
54613;SDS011;40514;52.758;6.360;2022-11-14T06:55:55;52.75;;;29.63;;
54613;SDS011;40514;52.758;6.360;2022-11-14T06:58:24;55.72;;;30.00;;
54613;SDS011;40514;52.758;6.360;2022-11-14T07:00:51;57.70;;;30.50;;
54613;SDS011;40514;52.758;6.360;2022-11-14T07:03:16;58.80;;;30.13;;
54613;SDS011;40514;52.758;6.360;2022-11-14T07:05:42;56.33;;;29.77;;
54613;SDS011;40514;52.758;6.360;2022-11-14T07:08:07;55.43;;;30.00;;
54613;SDS011;40514;52.758;6.360;2022-11-14T07:10:33;56.23;;;29.23;;
54613;SDS011;40514;52.758;6.360;2022-11-14T07:12:59;54.47;;;28.50;;
54613;SDS011;40514;52.758;6.360;2022-11-14T07:15:24;55.80;;;30.07;;
54613;SDS011;40514;52.758;6.360;2022-11-14T07:17:50;50.47;;;27.60;;
54613;SDS011;40514;52.758;6.360;2022-11-14T07:20:15;51.90;;;28.17;;
54613;SDS011;40514;52.758;6.360;2022-11-14T07:22:45;51.70;;;28.40;;
54613;SDS011;40514;52.758;6.360;2022-11-14T07:25:11;49.75;;;27.58;;
54613;SDS011;40514;52.758;6.360;2022-11-14T07:27:37;53.23;;;27.87;;
54613;SDS011;40514;52.758;6.360;2022-11-14T07:30:02;51.47;;;26.90;;
54613;SDS011;40514;52.758;6.360;2022-11-14T07:32:28;48.42;;;26.48;;
54613;SDS011;40514;52.758;6.360;2022-11-14T07:34:54;51.77;;;27.37;;
54613;SDS011;40514;52.758;6.360;2022-11-14T07:37:19;52.50;;;27.67;;
54613;SDS011;40514;52.758;6.360;2022-11-14T07:39:45;53.63;;;27.13;;
54613;SDS011;40514;52.758;6.360;2022-11-14T07:42:11;54.43;;;28.20;;
54613;SDS011;40514;52.758;6.360;2022-11-14T07:44:36;54.83;;;28.33;;
54613;SDS011;40514;52.758;6.360;2022-11-14T07:47:02;49.93;;;27.43;;
54613;SDS011;40514;52.758;6.360;2022-11-14T07:49:27;54.13;;;27.87;;
54613;SDS011;40514;52.758;6.360;2022-11-14T07:51:57;52.90;;;27.88;;
54613;SDS011;40514;52.758;6.360;2022-11-14T07:54:23;54.80;;;27.50;;
54613;SDS011;40514;52.758;6.360;2022-11-14T07:56:53;51.92;;;26.52;;
54613;SDS011;40514;52.758;6.360;2022-11-14T07:59:18;51.83;;;28.10;;
54613;SDS011;40514;52.758;6.360;2022-11-14T08:01:44;53.93;;;27.30;;
54613;SDS011;40514;52.758;6.360;2022-11-14T08:04:09;49.57;;;28.43;;
54613;SDS011;40514;52.758;6.360;2022-11-14T08:06:35;53.33;;;27.00;;
54613;SDS011;40514;52.758;6.360;2022-11-14T08:09:00;49.97;;;26.33;;
54613;SDS011;40514;52.758;6.360;2022-11-14T08:11:26;50.40;;;27.83;;
54613;SDS011;40514;52.758;6.360;2022-11-14T08:14:10;51.65;;;26.60;;
54613;SDS011;40514;52.758;6.360;2022-11-14T08:16:35;52.43;;;29.73;;
54613;SDS011;40514;52.758;6.360;2022-11-14T08:19:01;48.67;;;26.50;;
54613;SDS011;40514;52.758;6.360;2022-11-14T08:21:26;50.90;;;27.90;;
54613;SDS011;40514;52.758;6.360;2022-11-14T08:23:52;53.23;;;28.13;;
54613;SDS011;40514;52.758;6.360;2022-11-14T08:26:17;51.50;;;26.73;;
54613;SDS011;40514;52.758;6.360;2022-11-14T08:28:43;53.10;;;28.03;;
54613;SDS011;40514;52.758;6.360;2022-11-14T08:31:09;56.60;;;28.53;;
54613;SDS011;40514;52.758;6.360;2022-11-14T08:33:34;54.63;;;28.63;;
54613;SDS011;40514;52.758;6.360;2022-11-14T08:36:00;52.13;;;28.70;;
54613;SDS011;40514;52.758;6.360;2022-11-14T08:38:27;56.85;;;29.30;;
54613;SDS011;40514;52.758;6.360;2022-11-14T08:40:56;48.23;;;26.57;;
54613;SDS011;40514;52.758;6.360;2022-11-14T08:43:22;49.30;;;27.27;;
54613;SDS011;40514;52.758;6.360;2022-11-14T08:45:48;52.73;;;27.83;;
54613;SDS011;40514;52.758;6.360;2022-11-14T08:48:14;51.17;;;26.97;;
54613;SDS011;40514;52.758;6.360;2022-11-14T08:50:39;50.53;;;27.17;;
54613;SDS011;40514;52.758;6.360;2022-11-14T08:53:05;48.87;;;27.80;;
54613;SDS011;40514;52.758;6.360;2022-11-14T08:55:30;49.20;;;26.20;;
54613;SDS011;40514;52.758;6.360;2022-11-14T08:57:56;47.87;;;26.70;;
54613;SDS011;40514;52.758;6.360;2022-11-14T09:00:21;47.87;;;26.00;;
54613;SDS011;40514;52.758;6.360;2022-11-14T09:02:47;47.77;;;26.27;;
54613;SDS011;40514;52.758;6.360;2022-11-14T09:05:12;45.10;;;26.50;;
54613;SDS011;40514;52.758;6.360;2022-11-14T09:07:38;46.47;;;26.07;;
54613;SDS011;40514;52.758;6.360;2022-11-14T09:14:55;45.33;;;27.87;;
54613;SDS011;40514;52.758;6.360;2022-11-14T09:17:21;44.70;;;26.47;;
54613;SDS011;40514;52.758;6.360;2022-11-14T09:19:46;40.83;;;25.73;;
54613;SDS011;40514;52.758;6.360;2022-11-14T09:22:12;40.83;;;24.47;;
54613;SDS011;40514;52.758;6.360;2022-11-14T09:24:37;39.37;;;23.97;;
54613;SDS011;40514;52.758;6.360;2022-11-14T09:27:03;38.97;;;25.00;;
54613;SDS011;40514;52.758;6.360;2022-11-14T09:29:28;38.93;;;23.23;;
54613;SDS011;40514;52.758;6.360;2022-11-14T09:31:53;34.07;;;22.87;;
54613;SDS011;40514;52.758;6.360;2022-11-14T09:36:46;34.53;;;22.63;;
54613;SDS011;40514;52.758;6.360;2022-11-14T09:39:11;35.60;;;23.53;;
54613;SDS011;40514;52.758;6.360;2022-11-14T09:41:42;36.47;;;23.70;;
54613;SDS011;40514;52.758;6.360;2022-11-14T09:44:52;33.75;;;22.13;;
54613;SDS011;40514;52.758;6.360;2022-11-14T09:47:27;33.13;;;22.25;;
54613;SDS011;40514;52.758;6.360;2022-11-14T09:49:58;34.92;;;23.58;;
54613;SDS011;40514;52.758;6.360;2022-11-14T09:52:39;34.22;;;22.70;;
54613;SDS011;40514;52.758;6.360;2022-11-14T09:55:27;31.90;;;22.23;;
54613;SDS011;40514;52.758;6.360;2022-11-14T09:57:54;28.48;;;20.70;;
54613;SDS011;40514;52.758;6.360;2022-11-14T10:00:24;31.70;;;21.70;;
54613;SDS011;40514;52.758;6.360;2022-11-14T10:05:55;30.42;;;20.38;;
54613;SDS011;40514;52.758;6.360;2022-11-14T10:11:09;28.45;;;19.80;;
54613;SDS011;40514;52.758;6.360;2022-11-14T10:14:07;25.80;;;19.08;;
54613;SDS011;40514;52.758;6.360;2022-11-14T10:19:45;25.85;;;19.63;;
54613;SDS011;40514;52.758;6.360;2022-11-14T10:22:40;27.00;;;19.83;;
54613;SDS011;40514;52.758;6.360;2022-11-14T10:25:29;27.05;;;19.33;;
54613;SDS011;40514;52.758;6.360;2022-11-14T10:36:36;24.50;;;18.95;;
54613;SDS011;40514;52.758;6.360;2022-11-14T10:39:53;24.55;;;18.70;;
54613;SDS011;40514;52.758;6.360;2022-11-14T10:42:23;25.20;;;18.63;;
54613;SDS011;40514;52.758;6.360;2022-11-14T10:44:56;25.23;;;19.42;;
54613;SDS011;40514;52.758;6.360;2022-11-14T10:47:29;25.75;;;19.92;;
54613;SDS011;40514;52.758;6.360;2022-11-14T10:50:10;25.10;;;19.42;;
54613;SDS011;40514;52.758;6.360;2022-11-14T10:52:43;25.38;;;19.48;;
54613;SDS011;40514;52.758;6.360;2022-11-14T10:55:12;25.13;;;19.10;;
54613;SDS011;40514;52.758;6.360;2022-11-14T10:57:46;24.33;;;18.77;;
54613;SDS011;40514;52.758;6.360;2022-11-14T11:00:16;24.02;;;18.33;;
54613;SDS011;40514;52.758;6.360;2022-11-14T11:02:48;26.48;;;18.95;;
54613;SDS011;40514;52.758;6.360;2022-11-14T11:05:19;23.38;;;18.52;;
54613;SDS011;40514;52.758;6.360;2022-11-14T11:07:50;21.48;;;18.27;;
54613;SDS011;40514;52.758;6.360;2022-11-14T11:10:35;21.02;;;17.33;;
54613;SDS011;40514;52.758;6.360;2022-11-14T11:13:34;22.58;;;17.55;;
54613;SDS011;40514;52.758;6.360;2022-11-14T11:16:04;22.83;;;18.35;;
54613;SDS011;40514;52.758;6.360;2022-11-14T11:18:34;25.13;;;18.95;;
54613;SDS011;40514;52.758;6.360;2022-11-14T11:23:31;23.42;;;19.17;;
54613;SDS011;40514;52.758;6.360;2022-11-14T11:26:09;23.58;;;18.77;;
54613;SDS011;40514;52.758;6.360;2022-11-14T11:28:42;22.90;;;18.20;;
54613;SDS011;40514;52.758;6.360;2022-11-14T11:31:08;23.80;;;18.43;;
54613;SDS011;40514;52.758;6.360;2022-11-14T11:33:35;25.00;;;18.67;;
54613;SDS011;40514;52.758;6.360;2022-11-14T11:36:04;24.58;;;19.52;;
54613;SDS011;40514;52.758;6.360;2022-11-14T11:38:34;25.98;;;19.17;;
54613;SDS011;40514;52.758;6.360;2022-11-14T11:41:05;24.83;;;19.27;;
54613;SDS011;40514;52.758;6.360;2022-11-14T11:46:13;26.27;;;18.88;;
54613;SDS011;40514;52.758;6.360;2022-11-14T11:48:43;24.52;;;18.33;;
54613;SDS011;40514;52.758;6.360;2022-11-14T11:51:14;25.60;;;18.70;;
54613;SDS011;40514;52.758;6.360;2022-11-14T11:53:43;25.65;;;18.60;;
54613;SDS011;40514;52.758;6.360;2022-11-14T11:56:18;25.38;;;19.45;;
54613;SDS011;40514;52.758;6.360;2022-11-14T11:58:49;22.92;;;17.85;;
54613;SDS011;40514;52.758;6.360;2022-11-14T12:01:19;23.25;;;18.35;;
54613;SDS011;40514;52.758;6.360;2022-11-14T12:03:51;24.27;;;18.57;;
54613;SDS011;40514;52.758;6.360;2022-11-14T12:06:18;24.00;;;17.58;;
54613;SDS011;40514;52.758;6.360;2022-11-14T12:11:21;23.00;;;16.88;;
54613;SDS011;40514;52.758;6.360;2022-11-14T12:16:59;22.25;;;17.08;;
54613;SDS011;40514;52.758;6.360;2022-11-14T12:23:01;22.63;;;16.35;;
54613;SDS011;40514;52.758;6.360;2022-11-14T12:25:45;20.38;;;15.35;;
54613;SDS011;40514;52.758;6.360;2022-11-14T12:31:17;22.63;;;15.80;;
54613;SDS011;40514;52.758;6.360;2022-11-14T12:34:00;21.10;;;16.10;;
54613;SDS011;40514;52.758;6.360;2022-11-14T12:36:30;23.65;;;15.63;;
54613;SDS011;40514;52.758;6.360;2022-11-14T12:38:57;23.40;;;15.85;;
54613;SDS011;40514;52.758;6.360;2022-11-14T12:41:29;21.02;;;15.65;;
54613;SDS011;40514;52.758;6.360;2022-11-14T12:44:15;20.50;;;15.07;;
54613;SDS011;40514;52.758;6.360;2022-11-14T12:52:39;21.02;;;14.75;;
54613;SDS011;40514;52.758;6.360;2022-11-14T12:55:18;20.00;;;15.15;;
54613;SDS011;40514;52.758;6.360;2022-11-14T13:00:30;20.50;;;14.98;;
54613;SDS011;40514;52.758;6.360;2022-11-14T13:03:05;19.88;;;14.93;;
54613;SDS011;40514;52.758;6.360;2022-11-14T13:05:39;19.65;;;14.35;;
54613;SDS011;40514;52.758;6.360;2022-11-14T13:14:25;21.02;;;15.30;;
54613;SDS011;40514;52.758;6.360;2022-11-14T13:19:58;18.83;;;13.98;;
54613;SDS011;40514;52.758;6.360;2022-11-14T13:33:40;20.67;;;14.80;;
54613;SDS011;40514;52.758;6.360;2022-11-14T13:38:55;21.33;;;14.90;;
54613;SDS011;40514;52.758;6.360;2022-11-14T13:50:09;20.23;;;14.25;;
54613;SDS011;40514;52.758;6.360;2022-11-14T13:52:33;17.88;;;13.05;;
54613;SDS011;40514;52.758;6.360;2022-11-14T13:55:04;18.92;;;13.38;;
54613;SDS011;40514;52.758;6.360;2022-11-14T13:57:44;19.67;;;13.90;;
54613;SDS011;40514;52.758;6.360;2022-11-14T14:00:18;19.67;;;14.30;;
54613;SDS011;40514;52.758;6.360;2022-11-14T14:07:57;17.92;;;14.00;;
54613;SDS011;40514;52.758;6.360;2022-11-14T14:10:50;20.25;;;13.85;;
54613;SDS011;40514;52.758;6.360;2022-11-14T14:19:54;18.15;;;13.48;;
54613;SDS011;40514;52.758;6.360;2022-11-14T14:22:18;20.17;;;14.85;;
54613;SDS011;40514;52.758;6.360;2022-11-14T14:25:04;21.52;;;14.05;;
54613;SDS011;40514;52.758;6.360;2022-11-14T14:27:57;19.25;;;14.18;;
54613;SDS011;40514;52.758;6.360;2022-11-14T14:33:49;19.15;;;13.73;;
54613;SDS011;40514;52.758;6.360;2022-11-14T14:36:26;19.30;;;13.75;;
54613;SDS011;40514;52.758;6.360;2022-11-14T14:39:10;18.50;;;13.18;;
54613;SDS011;40514;52.758;6.360;2022-11-14T14:44:10;17.20;;;13.23;;
54613;SDS011;40514;52.758;6.360;2022-11-14T14:46:51;17.73;;;14.07;;
54613;SDS011;40514;52.758;6.360;2022-11-14T14:49:21;19.35;;;13.73;;
54613;SDS011;40514;52.758;6.360;2022-11-14T14:51:53;17.40;;;13.73;;
54613;SDS011;40514;52.758;6.360;2022-11-14T14:54:23;19.02;;;14.27;;
54613;SDS011;40514;52.758;6.360;2022-11-14T14:56:58;20.47;;;14.20;;
54613;SDS011;40514;52.758;6.360;2022-11-14T14:59:25;17.67;;;13.43;;
54613;SDS011;40514;52.758;6.360;2022-11-14T15:01:52;13.95;;;11.48;;
54613;SDS011;40514;52.758;6.360;2022-11-14T15:04:20;17.77;;;12.50;;
54613;SDS011;40514;52.758;6.360;2022-11-14T15:06:47;14.82;;;11.25;;
54613;SDS011;40514;52.758;6.360;2022-11-14T15:09:18;13.15;;;10.52;;
54613;SDS011;40514;52.758;6.360;2022-11-14T15:11:45;14.70;;;11.10;;
54613;SDS011;40514;52.758;6.360;2022-11-14T15:14:24;13.88;;;10.45;;
54613;SDS011;40514;52.758;6.360;2022-11-14T15:16:53;12.40;;;9.73;;
54613;SDS011;40514;52.758;6.360;2022-11-14T15:19:22;13.23;;;10.25;;
54613;SDS011;40514;52.758;6.360;2022-11-14T15:22:17;14.23;;;9.90;;
54613;SDS011;40514;52.758;6.360;2022-11-14T15:27:46;12.77;;;9.73;;
54613;SDS011;40514;52.758;6.360;2022-11-14T15:30:21;12.70;;;9.85;;
54613;SDS011;40514;52.758;6.360;2022-11-14T15:32:50;12.93;;;9.70;;
54613;SDS011;40514;52.758;6.360;2022-11-14T15:37:58;13.47;;;10.60;;
54613;SDS011;40514;52.758;6.360;2022-11-14T15:40:25;13.18;;;9.80;;
54613;SDS011;40514;52.758;6.360;2022-11-14T15:42:51;12.98;;;9.93;;
54613;SDS011;40514;52.758;6.360;2022-11-14T15:45:23;14.20;;;10.13;;
54613;SDS011;40514;52.758;6.360;2022-11-14T15:47:57;13.02;;;9.52;;
54613;SDS011;40514;52.758;6.360;2022-11-14T15:53:15;13.93;;;9.65;;
54613;SDS011;40514;52.758;6.360;2022-11-14T15:55:49;13.43;;;9.40;;
54613;SDS011;40514;52.758;6.360;2022-11-14T15:58:15;13.05;;;9.27;;
54613;SDS011;40514;52.758;6.360;2022-11-14T16:00:50;14.23;;;10.00;;
54613;SDS011;40514;52.758;6.360;2022-11-14T16:03:17;12.57;;;9.90;;
54613;SDS011;40514;52.758;6.360;2022-11-14T16:05:45;13.90;;;10.52;;
54613;SDS011;40514;52.758;6.360;2022-11-14T16:08:11;13.30;;;10.50;;
54613;SDS011;40514;52.758;6.360;2022-11-14T16:10:37;16.30;;;10.65;;
54613;SDS011;40514;52.758;6.360;2022-11-14T16:13:03;15.80;;;10.68;;
54613;SDS011;40514;52.758;6.360;2022-11-14T16:15:29;13.90;;;10.50;;
54613;SDS011;40514;52.758;6.360;2022-11-14T16:17:55;13.80;;;10.50;;
54613;SDS011;40514;52.758;6.360;2022-11-14T16:20:24;27.40;;;16.77;;
54613;SDS011;40514;52.758;6.360;2022-11-14T16:22:52;20.10;;;13.70;;
54613;SDS011;40514;52.758;6.360;2022-11-14T16:25:26;15.95;;;11.65;;